Aérodrome :
LOGIN :

S'inscrire | Disclaimer

   EN    FR    IT 

 










Légende :    VFR   VFR Marginal   IFR   IFR Intensif   IFR Très Intensif
Visi : 
Plafond : 
>= 8 km
>= 3000ft
5 à 8 km
1000 à 3000 ft
1500m à 5 km
500 à 1000 ft
800 à 1500m
200 à 500 ft
< 800m
< 200 ft
Symboles :   Orages  Brouillard  Fortes neiges  Fortes précipitations  Vent > 20 kt
SIGMETs :   Divers  Orages  Givrage  Turbulence  Onde Orograph.  Cendres Volcan.







- Altitude de l'aérodrome : 1106 ft
- Voir les cartes d'approche


LFSO - Nancy / Ochey

DERNIER METAR :
  • 251400Z AUTO 33009KT 300V010 9999 -RA OVC037 05/01 Q1010 TEMPO 4000 -RA BKN010 OVC020

METARs EXPIRÉS :
  • 251330Z AUTO 33010KT 300V010 9999 OVC032 06/M00 Q1010 TEMPO 4000 -RA BKN010 OVC020
  • 251300Z AUTO 34010KT 9999 BKN024 OVC030 06/00 Q1010 TEMPO 4000 -RA BKN010 OVC020
  • 251230Z AUTO 34009KT 300V360 9999 FEW018 OVC032 06/02 Q1011 TEMPO 4000 -RA BKN010 OVC020
  • 251200Z AUTO 33008KT 290V360 9999 SCT012 OVC027 06/03 Q1011 TEMPO 4000 -RA BKN010 OVC020
  • 251130Z AUTO 34004KT 310V010 9999 SCT014 OVC025 06/03 Q1011 TEMPO 4000 -RA BKN010 OVC020

TAF TAF LFSO
Valide du 25 à 09h jusqu'au 26 à 09h UTC


250800Z 2509/2609 28005KT 9999 SCT015 BKN050
BECMG 2511/2513 34010KT
TEMPO 2511/2522 4000 -RA BKN010 OVC020
BECMG 2522/2524 3000 -RADZ BKN009
BECMG 2606/2608 04005KT SCT015
Pas de NOTAMs connus pour ce terrain.



MET'MAP, la Météo Aéronautique d'un coup d'oeil ! - Copyright ORBIFLY Décembre 2007 - Disclaimer

ORBIFLY MET'MAP TEAM :

Programmation & Développement : Alexandra Zaïnal
Conception & Développement : Baudouin d'Aumeries
Co-Programmation & Développement : Marc-Olivier Méhu
Soutien technique & logistique : Manuel Goepfert

Contact : metmap@orbifly.com




SOURCES & CREDITS :

   NOAA